sensor_id;sensor_type;location;lat;lon;timestamp;temperature;humidity
8400;DHT22;4237;47.030;15.396;2022-12-07T00:01:46;1.40;99.90
8400;DHT22;4237;47.030;15.396;2022-12-07T00:04:16;1.30;99.90
8400;DHT22;4237;47.030;15.396;2022-12-07T00:06:50;1.30;99.90
8400;DHT22;4237;47.030;15.396;2022-12-07T00:09:17;1.30;99.90
8400;DHT22;4237;47.030;15.396;2022-12-07T00:11:49;1.30;99.90
8400;DHT22;4237;47.030;15.396;2022-12-07T00:14:19;1.30;99.90
8400;DHT22;4237;47.030;15.396;2022-12-07T00:16:52;1.20;99.90
8400;DHT22;4237;47.030;15.396;2022-12-07T00:19:20;1.30;99.90
8400;DHT22;4237;47.030;15.396;2022-12-07T00:21:49;1.30;99.90
8400;DHT22;4237;47.030;15.396;2022-12-07T00:24:18;1.40;99.90
8400;DHT22;4237;47.030;15.396;2022-12-07T00:26:46;1.40;99.90
8400;DHT22;4237;47.030;15.396;2022-12-07T00:29:18;1.40;99.90
8400;DHT22;4237;47.030;15.396;2022-12-07T00:31:47;1.30;99.90
8400;DHT22;4237;47.030;15.396;2022-12-07T00:34:20;1.30;99.90
8400;DHT22;4237;47.030;15.396;2022-12-07T00:36:50;1.30;99.90
8400;DHT22;4237;47.030;15.396;2022-12-07T00:39:18;1.30;99.90
8400;DHT22;4237;47.030;15.396;2022-12-07T00:41:47;1.30;99.90
8400;DHT22;4237;47.030;15.396;2022-12-07T00:44:16;1.30;99.90
8400;DHT22;4237;47.030;15.396;2022-12-07T00:46:45;1.20;99.90
8400;DHT22;4237;47.030;15.396;2022-12-07T00:49:14;1.30;99.90
8400;DHT22;4237;47.030;15.396;2022-12-07T00:51:42;1.20;99.90
8400;DHT22;4237;47.030;15.396;2022-12-07T00:54:11;1.20;99.90
8400;DHT22;4237;47.030;15.396;2022-12-07T00:56:39;1.20;99.90
8400;DHT22;4237;47.030;15.396;2022-12-07T00:59:10;1.20;99.90
8400;DHT22;4237;47.030;15.396;2022-12-07T01:01:42;1.20;99.90
8400;DHT22;4237;47.030;15.396;2022-12-07T01:04:11;1.20;99.90
8400;DHT22;4237;47.030;15.396;2022-12-07T01:06:39;1.20;99.90
8400;DHT22;4237;47.030;15.396;2022-12-07T01:09:08;1.30;99.90
8400;DHT22;4237;47.030;15.396;2022-12-07T01:11:36;1.30;99.90
8400;DHT22;4237;47.030;15.396;2022-12-07T01:14:05;1.40;99.90
8400;DHT22;4237;47.030;15.396;2022-12-07T01:16:33;1.40;99.90
8400;DHT22;4237;47.030;15.396;2022-12-07T01:19:02;1.40;99.90
8400;DHT22;4237;47.030;15.396;2022-12-07T01:21:34;1.40;99.90
8400;DHT22;4237;47.030;15.396;2022-12-07T01:24:07;1.40;99.90
8400;DHT22;4237;47.030;15.396;2022-12-07T01:26:36;1.40;99.90
8400;DHT22;4237;47.030;15.396;2022-12-07T01:29:04;1.40;99.90
8400;DHT22;4237;47.030;15.396;2022-12-07T01:31:33;1.50;99.90
8400;DHT22;4237;47.030;15.396;2022-12-07T01:34:02;1.40;99.90
8400;DHT22;4237;47.030;15.396;2022-12-07T01:36:34;1.50;99.90
8400;DHT22;4237;47.030;15.396;2022-12-07T01:39:08;1.50;99.90
8400;DHT22;4237;47.030;15.396;2022-12-07T01:41:40;1.50;99.90
8400;DHT22;4237;47.030;15.396;2022-12-07T01:44:22;1.30;99.90
8400;DHT22;4237;47.030;15.396;2022-12-07T01:46:56;1.20;99.90
8400;DHT22;4237;47.030;15.396;2022-12-07T01:52:23;1.30;99.90
8400;DHT22;4237;47.030;15.396;2022-12-07T01:54:57;1.30;99.90
8400;DHT22;4237;47.030;15.396;2022-12-07T01:57:27;1.20;99.90
8400;DHT22;4237;47.030;15.396;2022-12-07T01:59:56;1.10;99.90
8400;DHT22;4237;47.030;15.396;2022-12-07T02:02:34;1.10;99.90
8400;DHT22;4237;47.030;15.396;2022-12-07T02:05:02;1.20;99.90
8400;DHT22;4237;47.030;15.396;2022-12-07T02:07:32;1.20;99.90
8400;DHT22;4237;47.030;15.396;2022-12-07T02:10:28;1.10;99.90
8400;DHT22;4237;47.030;15.396;2022-12-07T02:13:05;1.00;99.90
8400;DHT22;4237;47.030;15.396;2022-12-07T02:15:43;0.80;99.90
8400;DHT22;4237;47.030;15.396;2022-12-07T02:18:25;0.80;99.90
8400;DHT22;4237;47.030;15.396;2022-12-07T02:21:11;0.70;99.90
8400;DHT22;4237;47.030;15.396;2022-12-07T02:23:52;0.70;99.90
8400;DHT22;4237;47.030;15.396;2022-12-07T02:26:29;0.60;99.90
8400;DHT22;4237;47.030;15.396;2022-12-07T02:29:14;0.60;99.90
8400;DHT22;4237;47.030;15.396;2022-12-07T02:31:57;0.60;99.90
8400;DHT22;4237;47.030;15.396;2022-12-07T02:34:47;0.60;99.90
8400;DHT22;4237;47.030;15.396;2022-12-07T02:37:25;0.60;99.90
8400;DHT22;4237;47.030;15.396;2022-12-07T02:39:51;0.70;99.90
8400;DHT22;4237;47.030;15.396;2022-12-07T02:42:24;0.70;99.90
8400;DHT22;4237;47.030;15.396;2022-12-07T02:44:52;0.70;99.90
8400;DHT22;4237;47.030;15.396;2022-12-07T02:47:22;0.80;99.90
8400;DHT22;4237;47.030;15.396;2022-12-07T02:49:53;0.70;99.90
8400;DHT22;4237;47.030;15.396;2022-12-07T02:52:22;0.60;99.90
8400;DHT22;4237;47.030;15.396;2022-12-07T02:54:50;0.60;99.90
8400;DHT22;4237;47.030;15.396;2022-12-07T02:57:34;0.60;99.90
8400;DHT22;4237;47.030;15.396;2022-12-07T03:00:14;0.60;99.90
8400;DHT22;4237;47.030;15.396;2022-12-07T03:02:53;0.60;99.90
8400;DHT22;4237;47.030;15.396;2022-12-07T03:05:28;0.60;99.90
8400;DHT22;4237;47.030;15.396;2022-12-07T03:07:59;0.60;99.90
8400;DHT22;4237;47.030;15.396;2022-12-07T03:10:32;0.50;99.90
8400;DHT22;4237;47.030;15.396;2022-12-07T03:13:22;0.50;99.90
8400;DHT22;4237;47.030;15.396;2022-12-07T03:16:02;0.40;99.90
8400;DHT22;4237;47.030;15.396;2022-12-07T03:18:34;0.40;99.90
8400;DHT22;4237;47.030;15.396;2022-12-07T03:21:06;0.40;99.90
8400;DHT22;4237;47.030;15.396;2022-12-07T03:23:36;0.30;99.90
8400;DHT22;4237;47.030;15.396;2022-12-07T03:26:08;0.30;99.90
8400;DHT22;4237;47.030;15.396;2022-12-07T03:28:42;0.40;99.90
8400;DHT22;4237;47.030;15.396;2022-12-07T03:31:12;0.40;99.90
8400;DHT22;4237;47.030;15.396;2022-12-07T03:33:44;0.40;99.90
8400;DHT22;4237;47.030;15.396;2022-12-07T03:36:20;0.40;99.90
8400;DHT22;4237;47.030;15.396;2022-12-07T03:39:06;0.40;99.90
8400;DHT22;4237;47.030;15.396;2022-12-07T03:41:34;0.30;99.90
8400;DHT22;4237;47.030;15.396;2022-12-07T03:44:06;0.30;99.90
8400;DHT22;4237;47.030;15.396;2022-12-07T03:46:50;0.30;99.90
8400;DHT22;4237;47.030;15.396;2022-12-07T03:49:56;0.20;99.90
8400;DHT22;4237;47.030;15.396;2022-12-07T03:55:05;0.10;99.90
8400;DHT22;4237;47.030;15.396;2022-12-07T03:57:30;0.10;99.90
8400;DHT22;4237;47.030;15.396;2022-12-07T03:59:59;0.10;99.90
8400;DHT22;4237;47.030;15.396;2022-12-07T04:02:29;0.10;99.90
8400;DHT22;4237;47.030;15.396;2022-12-07T04:04:57;0.20;99.90
8400;DHT22;4237;47.030;15.396;2022-12-07T04:07:26;0.30;99.90
8400;DHT22;4237;47.030;15.396;2022-12-07T04:09:55;0.30;99.90
8400;DHT22;4237;47.030;15.396;2022-12-07T04:12:24;0.30;99.90
8400;DHT22;4237;47.030;15.396;2022-12-07T04:14:53;0.30;99.90
8400;DHT22;4237;47.030;15.396;2022-12-07T04:17:21;0.30;99.90
8400;DHT22;4237;47.030;15.396;2022-12-07T04:19:50;0.30;99.90
